sensor_id;sensor_type;location;lat;lon;timestamp;P1;durP1;ratioP1;P2;durP2;ratioP2
37231;SDS011;23125;48.156;15.954;2022-08-01T00:00:00;3.92;;;3.50;;
37231;SDS011;23125;48.156;15.954;2022-08-01T00:02:30;3.63;;;3.33;;
37231;SDS011;23125;48.156;15.954;2022-08-01T00:05:07;4.25;;;3.53;;
37231;SDS011;23125;48.156;15.954;2022-08-01T00:07:35;4.60;;;3.47;;
37231;SDS011;23125;48.156;15.954;2022-08-01T00:10:07;3.80;;;3.50;;
37231;SDS011;23125;48.156;15.954;2022-08-01T00:12:43;5.28;;;3.78;;
37231;SDS011;23125;48.156;15.954;2022-08-01T00:15:21;3.95;;;3.58;;
37231;SDS011;23125;48.156;15.954;2022-08-01T00:18:03;4.53;;;3.20;;
37231;SDS011;23125;48.156;15.954;2022-08-01T00:20:31;3.72;;;3.22;;
37231;SDS011;23125;48.156;15.954;2022-08-01T00:22:57;3.42;;;3.13;;
37231;SDS011;23125;48.156;15.954;2022-08-01T00:25:31;4.80;;;3.60;;
37231;SDS011;23125;48.156;15.954;2022-08-01T00:30:38;4.53;;;3.17;;
37231;SDS011;23125;48.156;15.954;2022-08-01T00:33:13;3.90;;;3.15;;
37231;SDS011;23125;48.156;15.954;2022-08-01T00:35:45;3.60;;;3.20;;
37231;SDS011;23125;48.156;15.954;2022-08-01T00:38:17;5.15;;;3.22;;
37231;SDS011;23125;48.156;15.954;2022-08-01T00:41:02;5.10;;;3.45;;
37231;SDS011;23125;48.156;15.954;2022-08-01T00:43:31;4.57;;;3.17;;
37231;SDS011;23125;48.156;15.954;2022-08-01T00:46:09;3.55;;;3.13;;
37231;SDS011;23125;48.156;15.954;2022-08-01T00:48:41;3.15;;;2.72;;
37231;SDS011;23125;48.156;15.954;2022-08-01T00:51:07;3.38;;;3.13;;
37231;SDS011;23125;48.156;15.954;2022-08-01T00:53:39;4.20;;;2.97;;
37231;SDS011;23125;48.156;15.954;2022-08-01T00:56:07;4.90;;;2.90;;
37231;SDS011;23125;48.156;15.954;2022-08-01T00:58:43;4.07;;;3.00;;
37231;SDS011;23125;48.156;15.954;2022-08-01T01:01:22;3.30;;;3.00;;
37231;SDS011;23125;48.156;15.954;2022-08-01T01:03:57;3.60;;;3.00;;
37231;SDS011;23125;48.156;15.954;2022-08-01T01:06:46;3.08;;;2.72;;
37231;SDS011;23125;48.156;15.954;2022-08-01T01:09:35;5.07;;;2.78;;
37231;SDS011;23125;48.156;15.954;2022-08-01T01:12:41;4.35;;;3.38;;
37231;SDS011;23125;48.156;15.954;2022-08-01T01:18:51;4.22;;;3.35;;
37231;SDS011;23125;48.156;15.954;2022-08-01T01:24:58;3.47;;;3.13;;
37231;SDS011;23125;48.156;15.954;2022-08-01T01:27:49;4.28;;;2.70;;
37231;SDS011;23125;48.156;15.954;2022-08-01T01:30:27;3.70;;;2.70;;
37231;SDS011;23125;48.156;15.954;2022-08-01T01:33:05;3.38;;;2.65;;
37231;SDS011;23125;48.156;15.954;2022-08-01T01:35:46;3.10;;;2.72;;
37231;SDS011;23125;48.156;15.954;2022-08-01T01:38:29;3.80;;;2.80;;
37231;SDS011;23125;48.156;15.954;2022-08-01T01:41:08;4.28;;;3.20;;
37231;SDS011;23125;48.156;15.954;2022-08-01T01:43:57;3.35;;;2.78;;
37231;SDS011;23125;48.156;15.954;2022-08-01T01:46:39;3.15;;;2.85;;
37231;SDS011;23125;48.156;15.954;2022-08-01T01:49:12;4.07;;;2.50;;
37231;SDS011;23125;48.156;15.954;2022-08-01T01:51:40;3.17;;;2.85;;
37231;SDS011;23125;48.156;15.954;2022-08-01T01:54:22;8.77;;;3.08;;
37231;SDS011;23125;48.156;15.954;2022-08-01T01:57:00;2.88;;;2.55;;
37231;SDS011;23125;48.156;15.954;2022-08-01T01:59:35;3.53;;;2.80;;
37231;SDS011;23125;48.156;15.954;2022-08-01T02:02:04;3.25;;;2.92;;
37231;SDS011;23125;48.156;15.954;2022-08-01T02:04:43;3.95;;;3.05;;
37231;SDS011;23125;48.156;15.954;2022-08-01T02:07:14;3.33;;;2.97;;
37231;SDS011;23125;48.156;15.954;2022-08-01T02:09:46;4.65;;;2.53;;
37231;SDS011;23125;48.156;15.954;2022-08-01T02:12:15;3.75;;;3.03;;
37231;SDS011;23125;48.156;15.954;2022-08-01T02:14:47;4.05;;;2.70;;
37231;SDS011;23125;48.156;15.954;2022-08-01T02:17:20;3.80;;;2.70;;
37231;SDS011;23125;48.156;15.954;2022-08-01T02:19:50;3.65;;;3.00;;
37231;SDS011;23125;48.156;15.954;2022-08-01T02:22:27;3.38;;;2.72;;
37231;SDS011;23125;48.156;15.954;2022-08-01T02:25:15;3.83;;;2.65;;
37231;SDS011;23125;48.156;15.954;2022-08-01T02:30:28;3.97;;;2.90;;
37231;SDS011;23125;48.156;15.954;2022-08-01T02:33:11;3.85;;;2.88;;
37231;SDS011;23125;48.156;15.954;2022-08-01T02:35:44;3.42;;;3.08;;
37231;SDS011;23125;48.156;15.954;2022-08-01T02:38:17;3.33;;;2.50;;
37231;SDS011;23125;48.156;15.954;2022-08-01T02:40:48;3.88;;;2.72;;
37231;SDS011;23125;48.156;15.954;2022-08-01T02:43:26;3.00;;;2.80;;
37231;SDS011;23125;48.156;15.954;2022-08-01T02:46:08;2.72;;;2.42;;
37231;SDS011;23125;48.156;15.954;2022-08-01T02:48:50;2.78;;;2.25;;
37231;SDS011;23125;48.156;15.954;2022-08-01T02:51:21;2.58;;;2.38;;
37231;SDS011;23125;48.156;15.954;2022-08-01T02:53:49;2.80;;;2.60;;
37231;SDS011;23125;48.156;15.954;2022-08-01T02:56:19;4.80;;;2.90;;
37231;SDS011;23125;48.156;15.954;2022-08-01T02:58:47;4.82;;;2.92;;
37231;SDS011;23125;48.156;15.954;2022-08-01T03:01:16;2.50;;;2.30;;
37231;SDS011;23125;48.156;15.954;2022-08-01T03:03:45;4.63;;;3.30;;
37231;SDS011;23125;48.156;15.954;2022-08-01T03:06:13;6.95;;;3.25;;
37231;SDS011;23125;48.156;15.954;2022-08-01T03:08:42;5.05;;;2.85;;
37231;SDS011;23125;48.156;15.954;2022-08-01T03:11:15;3.85;;;2.72;;
37231;SDS011;23125;48.156;15.954;2022-08-01T03:13:44;2.90;;;2.45;;
37231;SDS011;23125;48.156;15.954;2022-08-01T03:16:14;3.40;;;2.90;;
37231;SDS011;23125;48.156;15.954;2022-08-01T03:18:43;2.67;;;2.47;;
37231;SDS011;23125;48.156;15.954;2022-08-01T03:21:12;3.05;;;2.75;;
37231;SDS011;23125;48.156;15.954;2022-08-01T03:23:41;4.50;;;2.53;;
37231;SDS011;23125;48.156;15.954;2022-08-01T03:26:11;2.70;;;2.50;;
37231;SDS011;23125;48.156;15.954;2022-08-01T03:28:40;4.00;;;3.35;;
37231;SDS011;23125;48.156;15.954;2022-08-01T03:31:14;3.25;;;2.83;;
37231;SDS011;23125;48.156;15.954;2022-08-01T03:33:53;4.20;;;2.83;;
37231;SDS011;23125;48.156;15.954;2022-08-01T03:36:24;2.60;;;2.33;;
37231;SDS011;23125;48.156;15.954;2022-08-01T03:38:58;2.90;;;2.70;;
37231;SDS011;23125;48.156;15.954;2022-08-01T03:41:30;3.65;;;2.65;;
37231;SDS011;23125;48.156;15.954;2022-08-01T03:44:04;3.30;;;3.00;;
37231;SDS011;23125;48.156;15.954;2022-08-01T03:46:46;3.55;;;3.25;;
37231;SDS011;23125;48.156;15.954;2022-08-01T03:49:20;3.75;;;2.67;;
37231;SDS011;23125;48.156;15.954;2022-08-01T03:51:49;3.00;;;2.60;;
37231;SDS011;23125;48.156;15.954;2022-08-01T03:54:23;3.53;;;2.75;;
37231;SDS011;23125;48.156;15.954;2022-08-01T03:56:51;2.47;;;2.28;;
37231;SDS011;23125;48.156;15.954;2022-08-01T03:59:19;3.15;;;2.85;;
37231;SDS011;23125;48.156;15.954;2022-08-01T04:04:16;3.97;;;2.92;;
37231;SDS011;23125;48.156;15.954;2022-08-01T04:06:44;4.72;;;2.80;;
37231;SDS011;23125;48.156;15.954;2022-08-01T04:09:11;2.60;;;2.40;;
37231;SDS011;23125;48.156;15.954;2022-08-01T04:11:40;2.92;;;2.72;;
37231;SDS011;23125;48.156;15.954;2022-08-01T04:14:07;6.15;;;2.70;;
37231;SDS011;23125;48.156;15.954;2022-08-01T04:16:42;5.32;;;2.80;;
37231;SDS011;23125;48.156;15.954;2022-08-01T04:19:09;4.03;;;2.72;;
37231;SDS011;23125;48.156;15.954;2022-08-01T04:21:36;5.43;;;2.85;;
37231;SDS011;23125;48.156;15.954;2022-08-01T04:24:08;2.83;;;2.60;;
37231;SDS011;23125;48.156;15.954;2022-08-01T04:26:43;2.95;;;2.55;;
37231;SDS011;23125;48.156;15.954;2022-08-01T04:29:13;3.55;;;2.97;;
37231;SDS011;23125;48.156;15.954;2022-08-01T04:31:43;3.60;;;2.80;;
37231;SDS011;23125;48.156;15.954;2022-08-01T04:34:16;4.13;;;2.72;;
37231;SDS011;23125;48.156;15.954;2022-08-01T04:36:46;5.18;;;2.80;;
37231;SDS011;23125;48.156;15.954;2022-08-01T04:39:18;2.72;;;2.53;;
37231;SDS011;23125;48.156;15.954;2022-08-01T04:41:47;8.32;;;3.08;;
37231;SDS011;23125;48.156;15.954;2022-08-01T04:44:17;5.35;;;2.60;;
37231;SDS011;23125;48.156;15.954;2022-08-01T04:46:44;2.92;;;2.60;;
37231;SDS011;23125;48.156;15.954;2022-08-01T04:49:14;3.22;;;2.75;;
37231;SDS011;23125;48.156;15.954;2022-08-01T04:51:52;6.63;;;2.70;;
37231;SDS011;23125;48.156;15.954;2022-08-01T04:54:27;3.25;;;2.97;;
37231;SDS011;23125;48.156;15.954;2022-08-01T04:57:02;4.15;;;3.20;;
37231;SDS011;23125;48.156;15.954;2022-08-01T04:59:30;5.95;;;4.40;;
37231;SDS011;23125;48.156;15.954;2022-08-01T05:02:18;2.90;;;2.70;;
37231;SDS011;23125;48.156;15.954;2022-08-01T05:04:46;3.30;;;2.45;;
37231;SDS011;23125;48.156;15.954;2022-08-01T05:07:20;5.90;;;3.70;;
37231;SDS011;23125;48.156;15.954;2022-08-01T05:09:48;5.28;;;3.60;;
37231;SDS011;23125;48.156;15.954;2022-08-01T05:12:15;4.32;;;3.20;;
37231;SDS011;23125;48.156;15.954;2022-08-01T05:14:43;4.43;;;3.72;;
37231;SDS011;23125;48.156;15.954;2022-08-01T05:17:19;3.47;;;2.97;;
37231;SDS011;23125;48.156;15.954;2022-08-01T05:19:54;3.95;;;3.20;;
37231;SDS011;23125;48.156;15.954;2022-08-01T05:22:28;3.85;;;3.40;;
37231;SDS011;23125;48.156;15.954;2022-08-01T05:25:02;4.35;;;3.60;;
37231;SDS011;23125;48.156;15.954;2022-08-01T05:27:31;5.75;;;3.53;;
37231;SDS011;23125;48.156;15.954;2022-08-01T05:30:00;5.20;;;4.65;;
37231;SDS011;23125;48.156;15.954;2022-08-01T05:32:33;3.78;;;3.47;;
37231;SDS011;23125;48.156;15.954;2022-08-01T05:35:00;4.43;;;4.03;;
37231;SDS011;23125;48.156;15.954;2022-08-01T05:37:28;5.05;;;3.70;;
37231;SDS011;23125;48.156;15.954;2022-08-01T05:39:56;4.80;;;4.35;;
37231;SDS011;23125;48.156;15.954;2022-08-01T05:42:23;4.00;;;3.60;;
37231;SDS011;23125;48.156;15.954;2022-08-01T05:44:50;4.32;;;3.60;;
37231;SDS011;23125;48.156;15.954;2022-08-01T05:47:18;3.80;;;3.40;;
37231;SDS011;23125;48.156;15.954;2022-08-01T05:49:52;3.45;;;3.15;;
37231;SDS011;23125;48.156;15.954;2022-08-01T05:52:24;3.88;;;2.80;;
37231;SDS011;23125;48.156;15.954;2022-08-01T05:54:52;3.42;;;2.80;;
37231;SDS011;23125;48.156;15.954;2022-08-01T05:57:20;2.78;;;2.38;;
37231;SDS011;23125;48.156;15.954;2022-08-01T05:59:48;3.33;;;2.47;;
37231;SDS011;23125;48.156;15.954;2022-08-01T06:02:16;2.72;;;2.53;;
37231;SDS011;23125;48.156;15.954;2022-08-01T06:04:43;3.20;;;2.78;;
37231;SDS011;23125;48.156;15.954;2022-08-01T06:07:09;3.65;;;2.35;;
37231;SDS011;23125;48.156;15.954;2022-08-01T06:09:37;3.15;;;2.45;;
37231;SDS011;23125;48.156;15.954;2022-08-01T06:12:05;5.47;;;2.72;;
37231;SDS011;23125;48.156;15.954;2022-08-01T06:14:34;4.68;;;2.42;;
37231;SDS011;23125;48.156;15.954;2022-08-01T06:17:02;2.33;;;1.95;;
37231;SDS011;23125;48.156;15.954;2022-08-01T06:19:34;2.40;;;2.05;;
37231;SDS011;23125;48.156;15.954;2022-08-01T06:22:04;2.30;;;2.10;;
37231;SDS011;23125;48.156;15.954;2022-08-01T06:24:37;3.30;;;1.73;;
37231;SDS011;23125;48.156;15.954;2022-08-01T06:27:06;2.85;;;1.70;;
37231;SDS011;23125;48.156;15.954;2022-08-01T06:29:41;2.60;;;1.70;;
37231;SDS011;23125;48.156;15.954;2022-08-01T06:32:14;2.15;;;1.90;;
37231;SDS011;23125;48.156;15.954;2022-08-01T06:34:42;2.85;;;1.92;;
37231;SDS011;23125;48.156;15.954;2022-08-01T06:37:11;1.77;;;1.63;;
37231;SDS011;23125;48.156;15.954;2022-08-01T06:39:44;1.60;;;1.50;;
37231;SDS011;23125;48.156;15.954;2022-08-01T06:42:20;3.92;;;2.08;;
37231;SDS011;23125;48.156;15.954;2022-08-01T06:44:50;2.20;;;2.00;;
37231;SDS011;23125;48.156;15.954;2022-08-01T06:47:18;2.00;;;1.80;;
37231;SDS011;23125;48.156;15.954;2022-08-01T06:49:46;1.88;;;1.75;;
37231;SDS011;23125;48.156;15.954;2022-08-01T06:52:16;3.17;;;2.03;;
37231;SDS011;23125;48.156;15.954;2022-08-01T06:54:44;3.60;;;2.25;;
37231;SDS011;23125;48.156;15.954;2022-08-01T06:57:13;2.35;;;1.80;;
37231;SDS011;23125;48.156;15.954;2022-08-01T06:59:40;4.10;;;1.63;;
37231;SDS011;23125;48.156;15.954;2022-08-01T07:02:07;2.30;;;1.83;;
37231;SDS011;23125;48.156;15.954;2022-08-01T07:04:34;2.10;;;1.90;;
37231;SDS011;23125;48.156;15.954;2022-08-01T07:07:02;2.00;;;1.60;;
37231;SDS011;23125;48.156;15.954;2022-08-01T07:09:34;2.35;;;1.92;;
37231;SDS011;23125;48.156;15.954;2022-08-01T07:12:06;3.55;;;2.28;;
37231;SDS011;23125;48.156;15.954;2022-08-01T07:14:40;2.10;;;1.67;;
37231;SDS011;23125;48.156;15.954;2022-08-01T07:17:06;1.90;;;1.50;;
37231;SDS011;23125;48.156;15.954;2022-08-01T07:19:34;2.47;;;1.60;;
37231;SDS011;23125;48.156;15.954;2022-08-01T07:22:03;2.33;;;1.35;;
37231;SDS011;23125;48.156;15.954;2022-08-01T07:24:32;2.88;;;1.50;;
37231;SDS011;23125;48.156;15.954;2022-08-01T07:26:59;2.25;;;1.40;;
37231;SDS011;23125;48.156;15.954;2022-08-01T07:29:27;2.67;;;1.40;;
37231;SDS011;23125;48.156;15.954;2022-08-01T07:32:00;2.13;;;1.48;;
37231;SDS011;23125;48.156;15.954;2022-08-01T07:34:32;3.50;;;1.50;;
37231;SDS011;23125;48.156;15.954;2022-08-01T07:36:58;2.15;;;1.30;;
37231;SDS011;23125;48.156;15.954;2022-08-01T07:39:26;2.15;;;1.63;;
37231;SDS011;23125;48.156;15.954;2022-08-01T07:41:53;2.30;;;1.20;;
37231;SDS011;23125;48.156;15.954;2022-08-01T07:44:20;2.13;;;1.40;;
37231;SDS011;23125;48.156;15.954;2022-08-01T07:46:48;1.88;;;1.23;;
37231;SDS011;23125;48.156;15.954;2022-08-01T07:49:15;1.92;;;1.50;;
37231;SDS011;23125;48.156;15.954;2022-08-01T07:51:42;1.65;;;1.42;;
37231;SDS011;23125;48.156;15.954;2022-08-01T07:54:14;1.67;;;1.52;;
37231;SDS011;23125;48.156;15.954;2022-08-01T07:56:41;3.33;;;2.03;;
37231;SDS011;23125;48.156;15.954;2022-08-01T07:59:08;2.15;;;1.55;;
37231;SDS011;23125;48.156;15.954;2022-08-01T08:01:35;2.05;;;1.40;;
37231;SDS011;23125;48.156;15.954;2022-08-01T08:04:01;2.03;;;1.60;;
37231;SDS011;23125;48.156;15.954;2022-08-01T08:06:28;2.17;;;1.67;;
37231;SDS011;23125;48.156;15.954;2022-08-01T08:08:56;2.60;;;1.77;;
37231;SDS011;23125;48.156;15.954;2022-08-01T08:11:24;2.38;;;1.80;;
37231;SDS011;23125;48.156;15.954;2022-08-01T08:13:54;2.28;;;1.90;;
37231;SDS011;23125;48.156;15.954;2022-08-01T08:16:21;1.85;;;1.52;;
37231;SDS011;23125;48.156;15.954;2022-08-01T08:18:48;2.00;;;1.77;;
37231;SDS011;23125;48.156;15.954;2022-08-01T08:21:15;2.58;;;1.77;;
37231;SDS011;23125;48.156;15.954;2022-08-01T08:23:41;1.92;;;1.80;;
37231;SDS011;23125;48.156;15.954;2022-08-01T08:26:26;5.10;;;2.35;;
37231;SDS011;23125;48.156;15.954;2022-08-01T08:28:54;2.50;;;2.17;;
37231;SDS011;23125;48.156;15.954;2022-08-01T08:31:23;2.65;;;2.05;;
37231;SDS011;23125;48.156;15.954;2022-08-01T08:33:51;2.05;;;1.80;;
37231;SDS011;23125;48.156;15.954;2022-08-01T08:36:19;2.58;;;2.38;;
37231;SDS011;23125;48.156;15.954;2022-08-01T08:38:45;4.75;;;4.30;;
37231;SDS011;23125;48.156;15.954;2022-08-01T08:41:21;7.78;;;5.35;;
37231;SDS011;23125;48.156;15.954;2022-08-01T08:43:48;3.28;;;3.03;;
37231;SDS011;23125;48.156;15.954;2022-08-01T08:46:19;2.58;;;2.35;;
37231;SDS011;23125;48.156;15.954;2022-08-01T08:48:59;2.47;;;2.28;;
37231;SDS011;23125;48.156;15.954;2022-08-01T08:51:30;3.20;;;2.17;;
37231;SDS011;23125;48.156;15.954;2022-08-01T08:53:59;3.20;;;2.25;;
37231;SDS011;23125;48.156;15.954;2022-08-01T08:56:46;2.97;;;2.30;;
37231;SDS011;23125;48.156;15.954;2022-08-01T08:59:29;2.30;;;2.10;;
37231;SDS011;23125;48.156;15.954;2022-08-01T09:01:56;2.85;;;2.03;;
37231;SDS011;23125;48.156;15.954;2022-08-01T09:04:30;2.67;;;2.15;;
37231;SDS011;23125;48.156;15.954;2022-08-01T09:07:03;2.55;;;2.03;;
37231;SDS011;23125;48.156;15.954;2022-08-01T09:09:33;3.28;;;2.05;;
37231;SDS011;23125;48.156;15.954;2022-08-01T09:12:00;2.42;;;2.20;;
37231;SDS011;23125;48.156;15.954;2022-08-01T09:14:27;2.92;;;2.00;;
37231;SDS011;23125;48.156;15.954;2022-08-01T09:17:10;2.72;;;2.28;;
37231;SDS011;23125;48.156;15.954;2022-08-01T09:19:51;3.67;;;2.10;;
37231;SDS011;23125;48.156;15.954;2022-08-01T09:22:26;2.75;;;2.40;;
37231;SDS011;23125;48.156;15.954;2022-08-01T09:25:12;2.70;;;2.23;;
37231;SDS011;23125;48.156;15.954;2022-08-01T09:27:39;3.13;;;2.13;;
37231;SDS011;23125;48.156;15.954;2022-08-01T09:30:13;3.28;;;2.60;;
37231;SDS011;23125;48.156;15.954;2022-08-01T09:32:58;2.70;;;2.50;;
37231;SDS011;23125;48.156;15.954;2022-08-01T09:35:33;2.42;;;1.98;;
37231;SDS011;23125;48.156;15.954;2022-08-01T09:38:20;5.53;;;2.20;;
37231;SDS011;23125;48.156;15.954;2022-08-01T09:43:20;3.25;;;2.05;;
37231;SDS011;23125;48.156;15.954;2022-08-01T09:45:49;2.40;;;2.03;;
37231;SDS011;23125;48.156;15.954;2022-08-01T09:48:29;3.00;;;2.28;;
37231;SDS011;23125;48.156;15.954;2022-08-01T09:50:58;2.67;;;2.20;;
37231;SDS011;23125;48.156;15.954;2022-08-01T09:53:25;2.80;;;2.22;;
37231;SDS011;23125;48.156;15.954;2022-08-01T09:56:10;2.60;;;2.28;;
37231;SDS011;23125;48.156;15.954;2022-08-01T09:58:51;3.38;;;2.25;;
37231;SDS011;23125;48.156;15.954;2022-08-01T10:01:46;2.17;;;1.98;;
37231;SDS011;23125;48.156;15.954;2022-08-01T10:04:16;4.05;;;2.40;;
37231;SDS011;23125;48.156;15.954;2022-08-01T10:06:45;3.22;;;2.53;;
37231;SDS011;23125;48.156;15.954;2022-08-01T10:09:27;2.13;;;1.92;;
37231;SDS011;23125;48.156;15.954;2022-08-01T10:11:57;2.67;;;2.10;;
37231;SDS011;23125;48.156;15.954;2022-08-01T10:14:25;3.95;;;2.50;;
37231;SDS011;23125;48.156;15.954;2022-08-01T10:16:56;3.85;;;2.83;;
37231;SDS011;23125;48.156;15.954;2022-08-01T10:19:30;3.58;;;2.35;;
37231;SDS011;23125;48.156;15.954;2022-08-01T10:22:04;2.50;;;2.30;;
37231;SDS011;23125;48.156;15.954;2022-08-01T10:24:46;2.97;;;2.65;;
37231;SDS011;23125;48.156;15.954;2022-08-01T10:27:16;2.60;;;2.40;;
37231;SDS011;23125;48.156;15.954;2022-08-01T10:32:23;2.40;;;2.20;;
37231;SDS011;23125;48.156;15.954;2022-08-01T10:34:50;2.78;;;2.20;;
37231;SDS011;23125;48.156;15.954;2022-08-01T10:37:23;2.85;;;2.55;;
37231;SDS011;23125;48.156;15.954;2022-08-01T10:39:54;4.70;;;2.50;;
37231;SDS011;23125;48.156;15.954;2022-08-01T10:42:23;4.95;;;2.25;;
37231;SDS011;23125;48.156;15.954;2022-08-01T10:44:50;2.47;;;2.17;;
37231;SDS011;23125;48.156;15.954;2022-08-01T10:47:18;5.68;;;2.58;;
37231;SDS011;23125;48.156;15.954;2022-08-01T10:58:26;3.47;;;2.83;;
37231;SDS011;23125;48.156;15.954;2022-08-01T11:04:07;2.58;;;2.38;;
37231;SDS011;23125;48.156;15.954;2022-08-01T11:07:13;4.55;;;2.30;;
37231;SDS011;23125;48.156;15.954;2022-08-01T11:09:43;3.15;;;2.38;;
37231;SDS011;23125;48.156;15.954;2022-08-01T11:12:39;2.60;;;2.40;;
37231;SDS011;23125;48.156;15.954;2022-08-01T11:17:44;3.92;;;2.35;;
37231;SDS011;23125;48.156;15.954;2022-08-01T11:20:26;2.63;;;2.28;;
37231;SDS011;23125;48.156;15.954;2022-08-01T11:30:45;2.67;;;2.00;;
37231;SDS011;23125;48.156;15.954;2022-08-01T11:33:18;1.90;;;1.80;;
37231;SDS011;23125;48.156;15.954;2022-08-01T11:38:39;4.22;;;2.50;;
37231;SDS011;23125;48.156;15.954;2022-08-01T11:41:20;3.05;;;2.33;;
37231;SDS011;23125;48.156;15.954;2022-08-01T11:43:59;2.40;;;2.05;;
37231;SDS011;23125;48.156;15.954;2022-08-01T11:49:29;2.20;;;2.00;;
37231;SDS011;23125;48.156;15.954;2022-08-01T11:52:17;4.10;;;2.08;;
37231;SDS011;23125;48.156;15.954;2022-08-01T11:55:01;2.28;;;1.90;;
37231;SDS011;23125;48.156;15.954;2022-08-01T11:57:43;2.63;;;2.22;;
37231;SDS011;23125;48.156;15.954;2022-08-01T12:00:10;1.90;;;1.80;;
37231;SDS011;23125;48.156;15.954;2022-08-01T12:02:39;2.53;;;1.98;;
37231;SDS011;23125;48.156;15.954;2022-08-01T12:05:06;4.15;;;2.17;;
37231;SDS011;23125;48.156;15.954;2022-08-01T12:07:43;2.42;;;2.22;;
37231;SDS011;23125;48.156;15.954;2022-08-01T12:12:47;2.53;;;2.33;;
37231;SDS011;23125;48.156;15.954;2022-08-01T12:15:22;2.78;;;2.33;;
37231;SDS011;23125;48.156;15.954;2022-08-01T12:17:51;2.95;;;2.45;;
37231;SDS011;23125;48.156;15.954;2022-08-01T12:20:23;2.20;;;2.00;;
37231;SDS011;23125;48.156;15.954;2022-08-01T12:22:53;2.20;;;2.00;;
37231;SDS011;23125;48.156;15.954;2022-08-01T12:25:21;2.40;;;2.20;;
37231;SDS011;23125;48.156;15.954;2022-08-01T12:27:49;2.65;;;2.15;;
37231;SDS011;23125;48.156;15.954;2022-08-01T12:30:22;2.20;;;2.00;;
37231;SDS011;23125;48.156;15.954;2022-08-01T12:32:51;2.60;;;2.40;;
37231;SDS011;23125;48.156;15.954;2022-08-01T12:35:19;2.22;;;2.00;;
37231;SDS011;23125;48.156;15.954;2022-08-01T12:37:49;2.85;;;2.55;;
37231;SDS011;23125;48.156;15.954;2022-08-01T12:40:19;4.55;;;2.17;;
37231;SDS011;23125;48.156;15.954;2022-08-01T12:42:48;2.55;;;2.25;;
37231;SDS011;23125;48.156;15.954;2022-08-01T12:45:18;2.80;;;2.30;;
37231;SDS011;23125;48.156;15.954;2022-08-01T12:47:47;2.78;;;2.47;;
37231;SDS011;23125;48.156;15.954;2022-08-01T12:50:21;4.68;;;2.67;;
37231;SDS011;23125;48.156;15.954;2022-08-01T12:52:54;3.15;;;2.85;;
37231;SDS011;23125;48.156;15.954;2022-08-01T12:55:21;2.63;;;2.42;;
37231;SDS011;23125;48.156;15.954;2022-08-01T12:58:06;4.57;;;2.90;;
37231;SDS011;23125;48.156;15.954;2022-08-01T13:00:35;4.47;;;2.80;;
37231;SDS011;23125;48.156;15.954;2022-08-01T13:10:55;2.30;;;1.85;;
37231;SDS011;23125;48.156;15.954;2022-08-01T13:13:44;2.03;;;1.58;;
37231;SDS011;23125;48.156;15.954;2022-08-01T13:16:19;2.20;;;1.63;;
37231;SDS011;23125;48.156;15.954;2022-08-01T13:18:52;1.95;;;1.60;;
37231;SDS011;23125;48.156;15.954;2022-08-01T13:21:22;1.25;;;1.15;;
37231;SDS011;23125;48.156;15.954;2022-08-01T13:24:11;1.23;;;1.13;;
37231;SDS011;23125;48.156;15.954;2022-08-01T13:26:43;2.78;;;1.10;;
37231;SDS011;23125;48.156;15.954;2022-08-01T13:29:20;1.50;;;1.25;;
37231;SDS011;23125;48.156;15.954;2022-08-01T13:31:58;1.15;;;0.90;;
37231;SDS011;23125;48.156;15.954;2022-08-01T13:34:32;1.05;;;0.95;;
37231;SDS011;23125;48.156;15.954;2022-08-01T13:37:01;1.15;;;0.93;;
37231;SDS011;23125;48.156;15.954;2022-08-01T13:39:29;1.85;;;1.08;;
37231;SDS011;23125;48.156;15.954;2022-08-01T13:42:10;1.65;;;1.15;;
37231;SDS011;23125;48.156;15.954;2022-08-01T13:44:40;2.25;;;1.23;;
37231;SDS011;23125;48.156;15.954;2022-08-01T13:47:12;1.55;;;1.42;;
37231;SDS011;23125;48.156;15.954;2022-08-01T13:49:40;1.73;;;1.07;;
37231;SDS011;23125;48.156;15.954;2022-08-01T13:52:07;1.33;;;1.20;;
37231;SDS011;23125;48.156;15.954;2022-08-01T13:54:35;1.65;;;1.00;;
37231;SDS011;23125;48.156;15.954;2022-08-01T13:57:07;1.00;;;0.80;;
37231;SDS011;23125;48.156;15.954;2022-08-01T13:59:35;0.90;;;0.60;;
37231;SDS011;23125;48.156;15.954;2022-08-01T14:02:03;0.88;;;0.70;;
37231;SDS011;23125;48.156;15.954;2022-08-01T14:04:30;0.95;;;0.80;;
37231;SDS011;23125;48.156;15.954;2022-08-01T14:07:02;1.42;;;0.90;;
37231;SDS011;23125;48.156;15.954;2022-08-01T14:09:28;1.02;;;0.93;;
37231;SDS011;23125;48.156;15.954;2022-08-01T14:11:55;0.95;;;0.77;;
37231;SDS011;23125;48.156;15.954;2022-08-01T14:14:23;1.05;;;0.82;;
37231;SDS011;23125;48.156;15.954;2022-08-01T14:16:50;1.10;;;0.70;;
37231;SDS011;23125;48.156;15.954;2022-08-01T14:19:16;1.48;;;0.80;;
37231;SDS011;23125;48.156;15.954;2022-08-01T14:21:51;3.75;;;0.80;;
37231;SDS011;23125;48.156;15.954;2022-08-01T14:24:23;1.35;;;0.70;;
37231;SDS011;23125;48.156;15.954;2022-08-01T14:26:51;0.90;;;0.70;;
37231;SDS011;23125;48.156;15.954;2022-08-01T14:29:18;2.08;;;0.98;;
37231;SDS011;23125;48.156;15.954;2022-08-01T14:31:52;2.22;;;0.95;;
37231;SDS011;23125;48.156;15.954;2022-08-01T14:34:20;1.00;;;0.90;;
37231;SDS011;23125;48.156;15.954;2022-08-01T14:36:48;1.20;;;1.05;;
37231;SDS011;23125;48.156;15.954;2022-08-01T14:39:18;1.23;;;0.98;;
37231;SDS011;23125;48.156;15.954;2022-08-01T14:41:45;1.63;;;1.15;;
37231;SDS011;23125;48.156;15.954;2022-08-01T14:44:12;1.92;;;0.95;;
37231;SDS011;23125;48.156;15.954;2022-08-01T14:46:40;1.30;;;1.15;;
37231;SDS011;23125;48.156;15.954;2022-08-01T14:49:09;3.03;;;1.63;;
37231;SDS011;23125;48.156;15.954;2022-08-01T14:51:36;2.72;;;2.53;;
37231;SDS011;23125;48.156;15.954;2022-08-01T14:54:03;2.42;;;1.70;;
37231;SDS011;23125;48.156;15.954;2022-08-01T14:56:31;1.48;;;1.30;;
37231;SDS011;23125;48.156;15.954;2022-08-01T14:58:57;2.33;;;1.42;;
37231;SDS011;23125;48.156;15.954;2022-08-01T15:01:24;2.30;;;1.30;;
37231;SDS011;23125;48.156;15.954;2022-08-01T15:03:51;2.28;;;1.50;;
37231;SDS011;23125;48.156;15.954;2022-08-01T15:06:17;1.85;;;1.58;;
37231;SDS011;23125;48.156;15.954;2022-08-01T15:08:44;2.10;;;1.60;;
37231;SDS011;23125;48.156;15.954;2022-08-01T15:11:11;2.22;;;1.85;;
37231;SDS011;23125;48.156;15.954;2022-08-01T15:13:39;2.00;;;1.52;;
37231;SDS011;23125;48.156;15.954;2022-08-01T15:16:10;2.35;;;1.65;;
37231;SDS011;23125;48.156;15.954;2022-08-01T15:18:36;2.45;;;1.60;;
37231;SDS011;23125;48.156;15.954;2022-08-01T15:21:03;2.55;;;1.50;;
37231;SDS011;23125;48.156;15.954;2022-08-01T15:23:31;2.10;;;1.63;;
37231;SDS011;23125;48.156;15.954;2022-08-01T15:25:58;2.30;;;1.85;;
37231;SDS011;23125;48.156;15.954;2022-08-01T15:28:24;2.50;;;1.58;;
37231;SDS011;23125;48.156;15.954;2022-08-01T15:30:51;2.15;;;1.83;;
37231;SDS011;23125;48.156;15.954;2022-08-01T15:33:18;3.67;;;1.52;;
37231;SDS011;23125;48.156;15.954;2022-08-01T15:35:47;1.88;;;1.70;;
37231;SDS011;23125;48.156;15.954;2022-08-01T15:38:13;1.92;;;1.60;;
37231;SDS011;23125;48.156;15.954;2022-08-01T15:40:40;3.28;;;1.95;;
37231;SDS011;23125;48.156;15.954;2022-08-01T15:43:11;2.22;;;1.90;;
37231;SDS011;23125;48.156;15.954;2022-08-01T15:45:40;2.17;;;1.98;;
37231;SDS011;23125;48.156;15.954;2022-08-01T15:48:07;2.63;;;1.48;;
37231;SDS011;23125;48.156;15.954;2022-08-01T15:50:34;2.55;;;1.83;;
37231;SDS011;23125;48.156;15.954;2022-08-01T15:53:03;2.13;;;1.77;;
37231;SDS011;23125;48.156;15.954;2022-08-01T15:55:35;2.22;;;2.03;;
37231;SDS011;23125;48.156;15.954;2022-08-01T15:58:03;2.08;;;1.80;;